sensor_id;sensor_type;location;lat;lon;timestamp;pressure;altitude;pressure_sealevel;temperature;humidity
33075;BME280;19433;51.292;6.868;2022-07-11T00:01:36;101150.69;;;17.33;90.89
33075;BME280;19433;51.292;6.868;2022-07-11T00:04:02;101158.22;;;17.33;90.95
33075;BME280;19433;51.292;6.868;2022-07-11T00:06:27;101144.25;;;17.33;90.58
33075;BME280;19433;51.292;6.868;2022-07-11T00:08:52;101149.94;;;17.26;91.07
33075;BME280;19433;51.292;6.868;2022-07-11T00:11:18;101142.88;;;17.23;91.88
33075;BME280;19433;51.292;6.868;2022-07-11T00:13:43;101153.47;;;17.15;92.50
33075;BME280;19433;51.292;6.868;2022-07-11T00:16:08;101145.31;;;17.13;92.58
33075;BME280;19433;51.292;6.868;2022-07-11T00:18:34;101146.91;;;17.09;92.59
33075;BME280;19433;51.292;6.868;2022-07-11T00:20:59;101153.34;;;17.10;92.43
33075;BME280;19433;51.292;6.868;2022-07-11T00:23:25;101150.53;;;17.10;92.43
33075;BME280;19433;51.292;6.868;2022-07-11T00:25:51;101152.72;;;17.08;93.27
33075;BME280;19433;51.292;6.868;2022-07-11T00:28:16;101151.06;;;17.00;93.71
33075;BME280;19433;51.292;6.868;2022-07-11T00:30:41;101148.25;;;17.00;93.81
33075;BME280;19433;51.292;6.868;2022-07-11T00:33:07;101134.41;;;16.94;94.29
33075;BME280;19433;51.292;6.868;2022-07-11T00:35:32;101132.91;;;16.91;94.11
33075;BME280;19433;51.292;6.868;2022-07-11T00:37:57;101139.41;;;16.85;93.92
33075;BME280;19433;51.292;6.868;2022-07-11T00:40:23;101138.22;;;16.74;94.56
33075;BME280;19433;51.292;6.868;2022-07-11T00:42:48;101132.97;;;16.60;95.45
33075;BME280;19433;51.292;6.868;2022-07-11T00:45:13;101149.50;;;16.54;96.20
33075;BME280;19433;51.292;6.868;2022-07-11T00:47:38;101146.16;;;16.46;96.51
33075;BME280;19433;51.292;6.868;2022-07-11T00:50:04;101136.81;;;16.34;96.64
33075;BME280;19433;51.292;6.868;2022-07-11T00:52:30;101144.34;;;16.33;96.70
33075;BME280;19433;51.292;6.868;2022-07-11T00:54:55;101136.03;;;16.20;97.53
33075;BME280;19433;51.292;6.868;2022-07-11T00:57:22;101131.19;;;16.09;98.05
33075;BME280;19433;51.292;6.868;2022-07-11T00:59:47;101140.84;;;16.06;99.20
33075;BME280;19433;51.292;6.868;2022-07-11T01:02:13;101133.81;;;16.04;98.79
33075;BME280;19433;51.292;6.868;2022-07-11T01:04:38;101134.72;;;15.98;99.76
33075;BME280;19433;51.292;6.868;2022-07-11T01:07:04;101135.59;;;15.92;100.00
33075;BME280;19433;51.292;6.868;2022-07-11T01:09:30;101135.81;;;15.90;100.00
33075;BME280;19433;51.292;6.868;2022-07-11T01:11:56;101138.84;;;15.89;100.00
33075;BME280;19433;51.292;6.868;2022-07-11T01:14:23;101142.28;;;15.84;100.00
33075;BME280;19433;51.292;6.868;2022-07-11T01:16:48;101136.66;;;15.91;100.00
33075;BME280;19433;51.292;6.868;2022-07-11T01:19:14;101128.66;;;15.69;100.00
33075;BME280;19433;51.292;6.868;2022-07-11T01:21:43;101129.09;;;15.66;100.00
33075;BME280;19433;51.292;6.868;2022-07-11T01:24:08;101123.56;;;15.53;100.00
33075;BME280;19433;51.292;6.868;2022-07-11T01:26:34;101128.28;;;15.53;100.00
33075;BME280;19433;51.292;6.868;2022-07-11T01:29:09;101125.53;;;15.39;100.00
33075;BME280;19433;51.292;6.868;2022-07-11T01:31:35;101118.06;;;15.33;100.00
33075;BME280;19433;51.292;6.868;2022-07-11T01:34:02;101128.13;;;15.28;100.00
33075;BME280;19433;51.292;6.868;2022-07-11T01:36:28;101125.38;;;15.21;100.00
33075;BME280;19433;51.292;6.868;2022-07-11T01:38:53;101118.78;;;15.09;100.00
33075;BME280;19433;51.292;6.868;2022-07-11T01:41:18;101123.72;;;15.00;100.00
33075;BME280;19433;51.292;6.868;2022-07-11T01:43:44;101129.31;;;14.94;100.00
33075;BME280;19433;51.292;6.868;2022-07-11T01:46:09;101118.66;;;14.77;100.00
33075;BME280;19433;51.292;6.868;2022-07-11T01:48:34;101116.06;;;14.69;100.00
33075;BME280;19433;51.292;6.868;2022-07-11T01:50:59;101117.81;;;14.64;100.00
33075;BME280;19433;51.292;6.868;2022-07-11T01:53:25;101109.91;;;14.61;100.00
33075;BME280;19433;51.292;6.868;2022-07-11T01:55:50;101116.75;;;14.65;100.00
33075;BME280;19433;51.292;6.868;2022-07-11T01:58:16;101113.94;;;14.58;100.00
33075;BME280;19433;51.292;6.868;2022-07-11T02:00:41;101115.44;;;14.67;100.00
33075;BME280;19433;51.292;6.868;2022-07-11T02:03:07;101116.50;;;14.73;100.00
33075;BME280;19433;51.292;6.868;2022-07-11T02:05:33;101117.38;;;14.80;100.00
33075;BME280;19433;51.292;6.868;2022-07-11T02:07:59;101120.34;;;14.78;100.00
33075;BME280;19433;51.292;6.868;2022-07-11T02:10:43;101124.81;;;14.86;100.00
33075;BME280;19433;51.292;6.868;2022-07-11T02:13:10;101119.06;;;14.81;100.00
33075;BME280;19433;51.292;6.868;2022-07-11T02:15:36;101120.38;;;14.65;100.00
33075;BME280;19433;51.292;6.868;2022-07-11T02:18:01;101102.63;;;14.60;100.00
33075;BME280;19433;51.292;6.868;2022-07-11T02:20:27;101117.34;;;14.73;100.00
33075;BME280;19433;51.292;6.868;2022-07-11T02:22:52;101118.38;;;14.99;100.00
33075;BME280;19433;51.292;6.868;2022-07-11T02:25:18;101105.16;;;14.74;100.00
33075;BME280;19433;51.292;6.868;2022-07-11T02:27:44;101113.97;;;14.65;100.00
33075;BME280;19433;51.292;6.868;2022-07-11T02:30:10;101109.69;;;14.62;100.00
33075;BME280;19433;51.292;6.868;2022-07-11T02:32:37;101115.47;;;14.61;100.00
33075;BME280;19433;51.292;6.868;2022-07-11T02:35:02;101117.34;;;14.67;100.00
33075;BME280;19433;51.292;6.868;2022-07-11T02:37:28;101112.66;;;14.67;100.00
33075;BME280;19433;51.292;6.868;2022-07-11T02:39:53;101111.16;;;14.71;100.00
33075;BME280;19433;51.292;6.868;2022-07-11T02:42:18;101104.31;;;14.74;100.00
33075;BME280;19433;51.292;6.868;2022-07-11T02:44:45;101122.47;;;14.90;100.00
33075;BME280;19433;51.292;6.868;2022-07-11T02:47:10;101128.91;;;14.97;100.00
33075;BME280;19433;51.292;6.868;2022-07-11T02:49:36;101129.72;;;15.04;100.00
33075;BME280;19433;51.292;6.868;2022-07-11T02:52:01;101129.06;;;15.08;100.00
33075;BME280;19433;51.292;6.868;2022-07-11T02:54:26;101129.69;;;15.17;100.00
33075;BME280;19433;51.292;6.868;2022-07-11T02:56:51;101121.31;;;15.17;100.00
33075;BME280;19433;51.292;6.868;2022-07-11T02:59:17;101122.16;;;15.24;100.00
33075;BME280;19433;51.292;6.868;2022-07-11T03:01:42;101130.09;;;15.21;100.00
33075;BME280;19433;51.292;6.868;2022-07-11T03:04:08;101125.59;;;15.26;100.00
33075;BME280;19433;51.292;6.868;2022-07-11T03:06:34;101139.91;;;15.36;100.00
33075;BME280;19433;51.292;6.868;2022-07-11T03:08:59;101121.84;;;15.45;100.00
33075;BME280;19433;51.292;6.868;2022-07-11T03:11:25;101120.13;;;15.51;100.00
33075;BME280;19433;51.292;6.868;2022-07-11T03:13:50;101116.28;;;15.45;100.00
33075;BME280;19433;51.292;6.868;2022-07-11T03:16:15;101124.88;;;15.44;100.00
33075;BME280;19433;51.292;6.868;2022-07-11T03:18:41;101116.56;;;15.37;100.00
33075;BME280;19433;51.292;6.868;2022-07-11T03:21:06;101133.69;;;15.41;100.00
33075;BME280;19433;51.292;6.868;2022-07-11T03:23:32;101125.50;;;15.46;100.00
33075;BME280;19433;51.292;6.868;2022-07-11T03:25:57;101129.56;;;15.50;100.00
33075;BME280;19433;51.292;6.868;2022-07-11T03:28:22;101137.25;;;15.55;100.00
33075;BME280;19433;51.292;6.868;2022-07-11T03:30:47;101130.44;;;15.57;100.00
33075;BME280;19433;51.292;6.868;2022-07-11T03:33:13;101132.16;;;15.58;100.00
33075;BME280;19433;51.292;6.868;2022-07-11T03:35:38;101130.16;;;15.72;100.00
33075;BME280;19433;51.292;6.868;2022-07-11T03:38:07;101140.88;;;15.68;100.00
33075;BME280;19433;51.292;6.868;2022-07-11T03:40:32;101138.94;;;15.69;100.00
33075;BME280;19433;51.292;6.868;2022-07-11T03:42:58;101140.00;;;15.68;100.00
33075;BME280;19433;51.292;6.868;2022-07-11T03:45:23;101138.88;;;15.75;100.00
33075;BME280;19433;51.292;6.868;2022-07-11T03:47:49;101135.00;;;15.83;100.00
33075;BME280;19433;51.292;6.868;2022-07-11T03:50:15;101142.88;;;15.93;100.00
33075;BME280;19433;51.292;6.868;2022-07-11T03:52:40;101127.91;;;15.87;100.00
33075;BME280;19433;51.292;6.868;2022-07-11T03:55:06;101138.44;;;15.85;100.00
33075;BME280;19433;51.292;6.868;2022-07-11T03:57:32;101137.19;;;15.74;100.00
33075;BME280;19433;51.292;6.868;2022-07-11T03:59:59;101136.56;;;15.72;100.00
33075;BME280;19433;51.292;6.868;2022-07-11T04:02:24;101137.38;;;15.79;100.00
33075;BME280;19433;51.292;6.868;2022-07-11T04:04:50;101138.66;;;15.83;100.00
33075;BME280;19433;51.292;6.868;2022-07-11T04:07:15;101137.75;;;15.90;100.00
33075;BME280;19433;51.292;6.868;2022-07-11T04:09:40;101133.88;;;15.91;100.00
33075;BME280;19433;51.292;6.868;2022-07-11T04:12:06;101139.44;;;15.91;100.00
33075;BME280;19433;51.292;6.868;2022-07-11T04:14:31;101143.63;;;16.06;100.00
33075;BME280;19433;51.292;6.868;2022-07-11T04:16:57;101138.34;;;15.98;100.00
33075;BME280;19433;51.292;6.868;2022-07-11T04:19:22;101137.00;;;16.07;100.00
33075;BME280;19433;51.292;6.868;2022-07-11T04:21:49;101143.00;;;16.04;100.00
33075;BME280;19433;51.292;6.868;2022-07-11T04:24:14;101137.06;;;16.01;100.00
33075;BME280;19433;51.292;6.868;2022-07-11T04:26:39;101135.97;;;16.02;100.00
33075;BME280;19433;51.292;6.868;2022-07-11T04:29:05;101149.84;;;16.08;100.00
33075;BME280;19433;51.292;6.868;2022-07-11T04:31:30;101140.41;;;16.09;100.00
33075;BME280;19433;51.292;6.868;2022-07-11T04:33:56;101146.13;;;16.21;100.00
33075;BME280;19433;51.292;6.868;2022-07-11T04:36:21;101155.75;;;16.25;100.00
33075;BME280;19433;51.292;6.868;2022-07-11T04:38:47;101148.44;;;16.31;100.00
33075;BME280;19433;51.292;6.868;2022-07-11T04:41:14;101153.56;;;16.34;100.00
33075;BME280;19433;51.292;6.868;2022-07-11T04:43:40;101154.78;;;16.38;99.06
33075;BME280;19433;51.292;6.868;2022-07-11T04:46:05;101161.63;;;16.42;98.54
33075;BME280;19433;51.292;6.868;2022-07-11T04:48:31;101161.19;;;16.45;98.95
33075;BME280;19433;51.292;6.868;2022-07-11T04:50:56;101164.28;;;16.62;97.86
33075;BME280;19433;51.292;6.868;2022-07-11T04:53:23;101154.31;;;16.47;98.95
33075;BME280;19433;51.292;6.868;2022-07-11T04:55:48;101160.66;;;16.54;97.86
33075;BME280;19433;51.292;6.868;2022-07-11T04:58:13;101165.78;;;16.64;96.49
33075;BME280;19433;51.292;6.868;2022-07-11T05:00:39;101165.81;;;16.58;98.65
33075;BME280;19433;51.292;6.868;2022-07-11T05:03:04;101157.56;;;16.69;96.00
33075;BME280;19433;51.292;6.868;2022-07-11T05:05:30;101162.88;;;16.77;96.20
33075;BME280;19433;51.292;6.868;2022-07-11T05:07:56;101163.59;;;16.66;98.09
33075;BME280;19433;51.292;6.868;2022-07-11T05:10:21;101162.53;;;16.67;97.51
33075;BME280;19433;51.292;6.868;2022-07-11T05:12:46;101158.84;;;16.73;97.51
33075;BME280;19433;51.292;6.868;2022-07-11T05:15:12;101163.09;;;16.76;96.62
33075;BME280;19433;51.292;6.868;2022-07-11T05:17:37;101174.81;;;16.84;96.93
33075;BME280;19433;51.292;6.868;2022-07-11T05:20:03;101175.63;;;16.92;95.79
33075;BME280;19433;51.292;6.868;2022-07-11T05:22:29;101169.13;;;16.98;96.97
33075;BME280;19433;51.292;6.868;2022-07-11T05:24:54;101184.78;;;16.99;95.23
33075;BME280;19433;51.292;6.868;2022-07-11T05:27:19;101179.91;;;16.94;95.96
33075;BME280;19433;51.292;6.868;2022-07-11T05:29:45;101194.63;;;17.01;95.48
33075;BME280;19433;51.292;6.868;2022-07-11T05:32:10;101188.09;;;16.89;94.74
33075;BME280;19433;51.292;6.868;2022-07-11T05:34:36;101183.19;;;17.09;95.17
33075;BME280;19433;51.292;6.868;2022-07-11T05:37:02;101196.13;;;17.04;93.12
33075;BME280;19433;51.292;6.868;2022-07-11T05:39:28;101185.81;;;17.04;93.15
33075;BME280;19433;51.292;6.868;2022-07-11T05:41:53;101189.50;;;16.98;93.85
33075;BME280;19433;51.292;6.868;2022-07-11T05:44:18;101192.88;;;17.07;92.19
33075;BME280;19433;51.292;6.868;2022-07-11T05:46:44;101197.38;;;17.08;92.44
33075;BME280;19433;51.292;6.868;2022-07-11T05:49:10;101200.75;;;16.92;93.25
33075;BME280;19433;51.292;6.868;2022-07-11T05:51:35;101188.56;;;16.86;93.33
33075;BME280;19433;51.292;6.868;2022-07-11T05:54:02;101195.22;;;16.85;95.34
33075;BME280;19433;51.292;6.868;2022-07-11T05:56:27;101203.13;;;16.88;94.96
33075;BME280;19433;51.292;6.868;2022-07-11T05:58:52;101203.00;;;17.01;93.58
33075;BME280;19433;51.292;6.868;2022-07-11T06:01:18;101207.91;;;17.06;93.85
33075;BME280;19433;51.292;6.868;2022-07-11T06:03:43;101209.00;;;17.05;92.08
33075;BME280;19433;51.292;6.868;2022-07-11T06:06:08;101204.72;;;17.02;92.56
33075;BME280;19433;51.292;6.868;2022-07-11T06:08:35;101206.13;;;17.11;93.24
33075;BME280;19433;51.292;6.868;2022-07-11T06:11:13;101208.09;;;17.11;92.90
33075;BME280;19433;51.292;6.868;2022-07-11T06:13:40;101210.59;;;17.19;91.31
33075;BME280;19433;51.292;6.868;2022-07-11T06:16:07;101213.84;;;16.91;91.53
33075;BME280;19433;51.292;6.868;2022-07-11T06:18:34;101213.44;;;16.87;93.33
33075;BME280;19433;51.292;6.868;2022-07-11T06:20:59;101204.81;;;16.96;94.92
33075;BME280;19433;51.292;6.868;2022-07-11T06:23:24;101214.75;;;17.10;91.66
33075;BME280;19433;51.292;6.868;2022-07-11T06:25:50;101213.50;;;17.06;92.66
33075;BME280;19433;51.292;6.868;2022-07-11T06:28:15;101213.09;;;17.02;93.14
33075;BME280;19433;51.292;6.868;2022-07-11T06:30:40;101216.22;;;17.12;91.30
33075;BME280;19433;51.292;6.868;2022-07-11T06:33:05;101223.63;;;17.25;91.46
33075;BME280;19433;51.292;6.868;2022-07-11T06:35:31;101214.81;;;17.03;92.58
33075;BME280;19433;51.292;6.868;2022-07-11T06:37:56;101214.28;;;17.13;92.69
33075;BME280;19433;51.292;6.868;2022-07-11T06:40:22;101216.00;;;17.14;92.25
33075;BME280;19433;51.292;6.868;2022-07-11T06:42:48;101215.00;;;17.08;93.18
33075;BME280;19433;51.292;6.868;2022-07-11T06:45:14;101217.25;;;17.18;93.15
33075;BME280;19433;51.292;6.868;2022-07-11T06:47:39;101219.91;;;17.31;91.21
33075;BME280;19433;51.292;6.868;2022-07-11T06:50:05;101219.34;;;17.22;92.11
33075;BME280;19433;51.292;6.868;2022-07-11T06:52:31;101217.03;;;17.19;92.27
33075;BME280;19433;51.292;6.868;2022-07-11T06:54:56;101221.19;;;17.10;92.43
33075;BME280;19433;51.292;6.868;2022-07-11T06:57:22;101220.09;;;17.11;92.76
33075;BME280;19433;51.292;6.868;2022-07-11T06:59:47;101212.31;;;16.95;93.93
33075;BME280;19433;51.292;6.868;2022-07-11T07:02:12;101213.63;;;16.93;94.10
33075;BME280;19433;51.292;6.868;2022-07-11T07:04:38;101220.53;;;16.90;95.14
33075;BME280;19433;51.292;6.868;2022-07-11T07:07:03;101232.13;;;16.87;95.34
33075;BME280;19433;51.292;6.868;2022-07-11T07:09:29;101222.34;;;16.78;96.07
33075;BME280;19433;51.292;6.868;2022-07-11T07:11:54;101227.81;;;16.91;97.33
33075;BME280;19433;51.292;6.868;2022-07-11T07:14:20;101231.16;;;17.00;95.30
33075;BME280;19433;51.292;6.868;2022-07-11T07:16:46;101230.94;;;17.01;94.99
33075;BME280;19433;51.292;6.868;2022-07-11T07:19:11;101233.28;;;17.04;94.74
33075;BME280;19433;51.292;6.868;2022-07-11T07:21:37;101231.50;;;17.10;96.16
33075;BME280;19433;51.292;6.868;2022-07-11T07:24:02;101230.25;;;17.06;96.05
33075;BME280;19433;51.292;6.868;2022-07-11T07:26:27;101222.69;;;16.88;99.79
33075;BME280;19433;51.292;6.868;2022-07-11T07:28:53;101228.03;;;16.90;100.00
33075;BME280;19433;51.292;6.868;2022-07-11T07:31:18;101234.25;;;16.92;100.00
33075;BME280;19433;51.292;6.868;2022-07-11T07:33:43;101227.25;;;17.07;100.00
33075;BME280;19433;51.292;6.868;2022-07-11T07:36:09;101230.94;;;17.44;100.00
33075;BME280;19433;51.292;6.868;2022-07-11T07:38:34;101224.72;;;17.42;100.00
33075;BME280;19433;51.292;6.868;2022-07-11T07:40:59;101227.19;;;17.32;100.00
33075;BME280;19433;51.292;6.868;2022-07-11T07:43:24;101234.69;;;17.56;100.00
33075;BME280;19433;51.292;6.868;2022-07-11T07:45:50;101235.19;;;17.72;95.55
33075;BME280;19433;51.292;6.868;2022-07-11T07:48:15;101225.66;;;17.36;97.11
33075;BME280;19433;51.292;6.868;2022-07-11T07:50:40;101236.78;;;17.61;96.74
33075;BME280;19433;51.292;6.868;2022-07-11T07:53:07;101233.56;;;17.57;96.34
33075;BME280;19433;51.292;6.868;2022-07-11T07:55:33;101240.88;;;17.58;95.26
33075;BME280;19433;51.292;6.868;2022-07-11T07:57:58;101235.53;;;17.39;95.04
33075;BME280;19433;51.292;6.868;2022-07-11T08:00:23;101232.16;;;17.30;97.33
33075;BME280;19433;51.292;6.868;2022-07-11T08:03:07;101229.28;;;17.18;97.87
33075;BME280;19433;51.292;6.868;2022-07-11T08:05:34;101230.06;;;17.44;98.46
33075;BME280;19433;51.292;6.868;2022-07-11T08:08:00;101228.16;;;17.63;96.55
33075;BME280;19433;51.292;6.868;2022-07-11T08:10:25;101229.44;;;17.85;95.20
33075;BME280;19433;51.292;6.868;2022-07-11T08:12:50;101230.97;;;17.99;94.24
33075;BME280;19433;51.292;6.868;2022-07-11T08:15:16;101228.31;;;18.34;94.91
33075;BME280;19433;51.292;6.868;2022-07-11T08:17:41;101234.88;;;18.58;93.56
33075;BME280;19433;51.292;6.868;2022-07-11T08:20:07;101222.16;;;18.74;90.53
33075;BME280;19433;51.292;6.868;2022-07-11T08:22:32;101218.91;;;18.77;90.62
33075;BME280;19433;51.292;6.868;2022-07-11T08:24:58;101222.41;;;18.72;87.32
33075;BME280;19433;51.292;6.868;2022-07-11T08:27:23;101232.03;;;18.46;88.89
33075;BME280;19433;51.292;6.868;2022-07-11T08:29:48;101236.38;;;18.60;90.08
33075;BME280;19433;51.292;6.868;2022-07-11T08:32:14;101235.06;;;18.75;88.26
33075;BME280;19433;51.292;6.868;2022-07-11T08:34:39;101245.88;;;18.59;89.71
33075;BME280;19433;51.292;6.868;2022-07-11T08:37:05;101243.56;;;18.38;90.26
33075;BME280;19433;51.292;6.868;2022-07-11T08:39:30;101241.53;;;18.45;90.22
33075;BME280;19433;51.292;6.868;2022-07-11T08:41:56;101247.78;;;18.29;90.61
33075;BME280;19433;51.292;6.868;2022-07-11T08:44:22;101243.88;;;18.00;91.20
33075;BME280;19433;51.292;6.868;2022-07-11T08:46:49;101244.63;;;17.89;93.11
33075;BME280;19433;51.292;6.868;2022-07-11T08:49:15;101241.88;;;18.19;92.33
33075;BME280;19433;51.292;6.868;2022-07-11T08:51:41;101250.19;;;18.55;90.91
33075;BME280;19433;51.292;6.868;2022-07-11T08:54:06;101247.59;;;18.72;89.52
33075;BME280;19433;51.292;6.868;2022-07-11T08:56:32;101244.25;;;18.93;89.71
33075;BME280;19433;51.292;6.868;2022-07-11T08:58:59;101242.69;;;19.21;87.58
33075;BME280;19433;51.292;6.868;2022-07-11T09:01:29;101248.44;;;19.49;84.51
33075;BME280;19433;51.292;6.868;2022-07-11T09:03:55;101243.41;;;19.75;82.74
33075;BME280;19433;51.292;6.868;2022-07-11T09:06:21;101246.81;;;19.88;82.66
33075;BME280;19433;51.292;6.868;2022-07-11T09:08:46;101242.28;;;19.87;84.13
33075;BME280;19433;51.292;6.868;2022-07-11T09:11:11;101246.00;;;20.16;83.97
33075;BME280;19433;51.292;6.868;2022-07-11T09:13:37;101242.41;;;20.44;81.46
33075;BME280;19433;51.292;6.868;2022-07-11T09:16:07;101248.09;;;20.49;80.56
33075;BME280;19433;51.292;6.868;2022-07-11T09:18:38;101245.78;;;20.75;78.27
33075;BME280;19433;51.292;6.868;2022-07-11T09:21:22;101248.41;;;20.81;77.90
33075;BME280;19433;51.292;6.868;2022-07-11T09:24:06;101245.00;;;20.79;77.69
33075;BME280;19433;51.292;6.868;2022-07-11T09:26:51;101244.69;;;20.92;78.59
33075;BME280;19433;51.292;6.868;2022-07-11T09:29:20;101241.81;;;21.04;75.83
33075;BME280;19433;51.292;6.868;2022-07-11T09:31:46;101234.13;;;21.16;74.71
33075;BME280;19433;51.292;6.868;2022-07-11T09:34:13;101237.88;;;21.05;75.68
33075;BME280;19433;51.292;6.868;2022-07-11T09:36:43;101244.09;;;21.24;76.02
33075;BME280;19433;51.292;6.868;2022-07-11T09:39:14;101235.59;;;21.35;74.40
33075;BME280;19433;51.292;6.868;2022-07-11T09:41:40;101239.38;;;21.63;71.07
33075;BME280;19433;51.292;6.868;2022-07-11T09:44:11;101239.81;;;21.55;74.13
33075;BME280;19433;51.292;6.868;2022-07-11T09:46:38;101230.88;;;21.58;74.62
33075;BME280;19433;51.292;6.868;2022-07-11T09:49:04;101232.44;;;21.49;74.59
33075;BME280;19433;51.292;6.868;2022-07-11T09:51:34;101239.56;;;21.56;73.16
33075;BME280;19433;51.292;6.868;2022-07-11T09:54:01;101231.94;;;21.73;74.18
33075;BME280;19433;51.292;6.868;2022-07-11T09:59:05;101232.91;;;21.62;71.73
33075;BME280;19433;51.292;6.868;2022-07-11T10:01:31;101234.16;;;21.71;71.14
33075;BME280;19433;51.292;6.868;2022-07-11T10:03:56;101233.38;;;21.76;72.59
33075;BME280;19433;51.292;6.868;2022-07-11T10:06:22;101233.09;;;21.56;74.04
33075;BME280;19433;51.292;6.868;2022-07-11T10:08:50;101240.88;;;21.49;74.87
33075;BME280;19433;51.292;6.868;2022-07-11T10:11:15;101236.94;;;21.50;73.44
33075;BME280;19433;51.292;6.868;2022-07-11T10:13:41;101231.25;;;21.45;73.53
33075;BME280;19433;51.292;6.868;2022-07-11T10:19:25;101232.09;;;21.12;75.56
33075;BME280;19433;51.292;6.868;2022-07-11T10:24:31;101240.47;;;20.78;76.64
33075;BME280;19433;51.292;6.868;2022-07-11T10:27:22;101237.94;;;20.60;77.33
33075;BME280;19433;51.292;6.868;2022-07-11T10:29:52;101249.66;;;20.57;77.07
33075;BME280;19433;51.292;6.868;2022-07-11T10:32:18;101248.13;;;20.66;75.29
33075;BME280;19433;51.292;6.868;2022-07-11T10:34:44;101243.59;;;20.08;76.22
33075;BME280;19433;51.292;6.868;2022-07-11T10:37:12;101247.28;;;19.97;76.52
33075;BME280;19433;51.292;6.868;2022-07-11T10:39:37;101253.34;;;20.06;77.86
33075;BME280;19433;51.292;6.868;2022-07-11T10:42:04;101246.75;;;20.12;77.45
33075;BME280;19433;51.292;6.868;2022-07-11T10:44:51;101252.06;;;19.85;78.10
33075;BME280;19433;51.292;6.868;2022-07-11T10:49:57;101255.47;;;19.75;78.21
33075;BME280;19433;51.292;6.868;2022-07-11T10:52:25;101259.75;;;19.78;80.21
33075;BME280;19433;51.292;6.868;2022-07-11T10:57:32;101259.19;;;20.04;81.11
33075;BME280;19433;51.292;6.868;2022-07-11T11:00:05;101261.72;;;20.17;77.83
33075;BME280;19433;51.292;6.868;2022-07-11T11:02:31;101249.09;;;20.43;77.44
33075;BME280;19433;51.292;6.868;2022-07-11T11:04:59;101249.47;;;20.35;78.73
33075;BME280;19433;51.292;6.868;2022-07-11T11:15:37;101264.06;;;20.60;76.50
33075;BME280;19433;51.292;6.868;2022-07-11T11:23:35;101264.63;;;21.08;77.86
33075;BME280;19433;51.292;6.868;2022-07-11T11:26:14;101268.44;;;21.68;75.51
33075;BME280;19433;51.292;6.868;2022-07-11T11:31:29;101268.25;;;22.14;70.94
33075;BME280;19433;51.292;6.868;2022-07-11T11:33:59;101270.47;;;22.33;71.68
33075;BME280;19433;51.292;6.868;2022-07-11T11:36:26;101265.81;;;22.44;69.93
33075;BME280;19433;51.292;6.868;2022-07-11T11:38:53;101260.19;;;22.22;70.22
33075;BME280;19433;51.292;6.868;2022-07-11T11:41:26;101270.28;;;22.18;70.31
33075;BME280;19433;51.292;6.868;2022-07-11T11:43:53;101267.41;;;21.74;71.02
33075;BME280;19433;51.292;6.868;2022-07-11T11:46:19;101259.94;;;21.63;71.77
33075;BME280;19433;51.292;6.868;2022-07-11T11:48:47;101265.56;;;21.63;74.44
33075;BME280;19433;51.292;6.868;2022-07-11T11:51:17;101264.00;;;21.56;75.17
33075;BME280;19433;51.292;6.868;2022-07-11T11:53:53;101275.06;;;21.79;73.07
33075;BME280;19433;51.292;6.868;2022-07-11T11:56:23;101261.28;;;21.61;71.93
33075;BME280;19433;51.292;6.868;2022-07-11T11:59:01;101268.94;;;21.82;71.09
33075;BME280;19433;51.292;6.868;2022-07-11T12:01:34;101264.06;;;21.77;72.99
33075;BME280;19433;51.292;6.868;2022-07-11T12:04:07;101267.50;;;21.63;70.90
33075;BME280;19433;51.292;6.868;2022-07-11T12:06:35;101263.16;;;21.55;74.08
33075;BME280;19433;51.292;6.868;2022-07-11T12:09:09;101262.66;;;21.58;72.24
33075;BME280;19433;51.292;6.868;2022-07-11T12:11:36;101261.03;;;21.62;73.60
33075;BME280;19433;51.292;6.868;2022-07-11T12:14:10;101257.06;;;21.80;74.04
33075;BME280;19433;51.292;6.868;2022-07-11T12:16:42;101260.00;;;21.68;71.34
33075;BME280;19433;51.292;6.868;2022-07-11T12:19:16;101260.41;;;21.38;72.48
33075;BME280;19433;51.292;6.868;2022-07-11T12:21:47;101254.91;;;21.15;72.82
33075;BME280;19433;51.292;6.868;2022-07-11T12:24:16;101260.13;;;21.06;74.40
33075;BME280;19433;51.292;6.868;2022-07-11T12:26:42;101245.56;;;21.26;74.36
33075;BME280;19433;51.292;6.868;2022-07-11T12:29:41;101247.16;;;21.39;76.13
33075;BME280;19433;51.292;6.868;2022-07-11T12:32:10;101255.50;;;21.67;73.47
33075;BME280;19433;51.292;6.868;2022-07-11T12:37:06;101258.22;;;22.23;71.04
33075;BME280;19433;51.292;6.868;2022-07-11T12:39:33;101261.56;;;21.98;69.43
33075;BME280;19433;51.292;6.868;2022-07-11T12:41:59;101250.09;;;21.83;71.08
33075;BME280;19433;51.292;6.868;2022-07-11T12:44:29;101253.47;;;21.85;73.19
33075;BME280;19433;51.292;6.868;2022-07-11T12:47:15;101246.03;;;21.95;73.75
33075;BME280;19433;51.292;6.868;2022-07-11T12:49:42;101235.38;;;22.41;70.45
33075;BME280;19433;51.292;6.868;2022-07-11T12:52:11;101243.22;;;22.39;71.04
33075;BME280;19433;51.292;6.868;2022-07-11T12:54:37;101240.56;;;22.54;69.59
33075;BME280;19433;51.292;6.868;2022-07-11T12:57:04;101245.31;;;22.75;69.98
33075;BME280;19433;51.292;6.868;2022-07-11T12:59:31;101239.63;;;22.70;68.17
33075;BME280;19433;51.292;6.868;2022-07-11T13:02:08;101243.56;;;22.96;67.15
33075;BME280;19433;51.292;6.868;2022-07-11T13:10:08;101241.72;;;22.31;68.11
33075;BME280;19433;51.292;6.868;2022-07-11T13:12:34;101252.28;;;22.19;69.93
33075;BME280;19433;51.292;6.868;2022-07-11T13:15:01;101243.44;;;22.10;71.46
33075;BME280;19433;51.292;6.868;2022-07-11T13:17:47;101249.91;;;22.33;70.75
33075;BME280;19433;51.292;6.868;2022-07-11T13:20:15;101248.34;;;22.69;71.80
33075;BME280;19433;51.292;6.868;2022-07-11T13:22:44;101251.94;;;23.18;70.26
33075;BME280;19433;51.292;6.868;2022-07-11T13:25:11;101253.06;;;23.22;66.52